createdAt,value
2024-03-02T00:01:47.719Z,23.30
2024-03-02T00:04:16.110Z,21.70
2024-03-02T00:06:44.130Z,21.42
2024-03-02T00:09:13.831Z,22.33
2024-03-02T00:11:41.986Z,21.63
2024-03-02T00:14:10.423Z,22.42
2024-03-02T00:16:38.320Z,22.05
2024-03-02T00:19:09.307Z,21.98
2024-03-02T00:21:37.631Z,22.95
2024-03-02T00:24:19.787Z,22.95
2024-03-02T00:26:48.097Z,24.00
2024-03-02T00:29:18.457Z,23.40
2024-03-02T00:31:46.634Z,23.17
2024-03-02T00:34:17.503Z,23.40
2024-03-02T00:36:46.084Z,23.67
2024-03-02T00:39:15.073Z,21.48
2024-03-02T00:41:44.418Z,24.08
2024-03-02T00:44:15.322Z,22.50
2024-03-02T00:46:45.009Z,23.90
2024-03-02T00:49:24.300Z,24.30
2024-03-02T00:51:54.362Z,24.75
2024-03-02T00:54:25.339Z,24.15
2024-03-02T00:56:53.649Z,24.65
2024-03-02T00:59:21.545Z,25.10
2024-03-02T01:01:52.516Z,23.60
2024-03-02T01:04:21.876Z,24.73
2024-03-02T01:06:50.154Z,25.38
2024-03-02T01:09:19.264Z,26.25
2024-03-02T01:11:47.573Z,25.02
2024-03-02T01:14:15.507Z,25.00
2024-03-02T01:16:43.446Z,26.50
2024-03-02T01:19:12.166Z,24.83
2024-03-02T01:21:41.725Z,26.83
2024-03-02T01:24:09.901Z,26.38
2024-03-02T01:26:37.708Z,24.92
2024-03-02T01:29:06.357Z,24.63
2024-03-02T01:31:34.323Z,25.75
2024-03-02T01:34:02.936Z,24.52
2024-03-02T01:36:31.085Z,24.80
2024-03-02T01:39:00.328Z,25.15
2024-03-02T01:41:29.180Z,24.23
2024-03-02T01:43:57.213Z,25.45
2024-03-02T01:46:26.088Z,24.17
2024-03-02T01:48:54.001Z,24.13
2024-03-02T01:51:22.584Z,23.92
2024-03-02T01:53:50.696Z,25.08
2024-03-02T01:56:19.975Z,25.83
2024-03-02T01:58:47.976Z,24.90
2024-03-02T02:01:17.166Z,25.40
2024-03-02T02:03:46.121Z,25.17
2024-03-02T02:06:14.640Z,24.40
2024-03-02T02:08:42.609Z,26.05
2024-03-02T02:11:10.610Z,26.27
2024-03-02T02:13:39.949Z,26.52
2024-03-02T02:16:08.814Z,26.33
2024-03-02T02:18:37.112Z,25.38
2024-03-02T02:21:05.798Z,25.92
2024-03-02T02:23:35.307Z,27.90
2024-03-02T02:26:04.945Z,26.67
2024-03-02T02:28:32.869Z,28.67
2024-03-02T02:31:01.564Z,27.45
2024-03-02T02:33:30.119Z,27.20
2024-03-02T02:35:58.025Z,26.02
2024-03-02T02:38:25.939Z,28.77
2024-03-02T02:40:55.214Z,27.65
2024-03-02T02:43:23.279Z,28.58
2024-03-02T02:45:51.190Z,28.38
2024-03-02T02:48:19.244Z,27.48
2024-03-02T02:50:47.188Z,28.33
2024-03-02T02:53:15.583Z,28.80
2024-03-02T02:55:44.676Z,28.42
2024-03-02T02:58:14.217Z,29.58
2024-03-02T03:00:42.806Z,29.20
2024-03-02T03:03:10.759Z,27.88
2024-03-02T03:05:38.588Z,28.48
2024-03-02T03:08:06.682Z,30.90
2024-03-02T03:10:34.621Z,29.02
2024-03-02T03:13:02.644Z,30.92
2024-03-02T03:15:31.945Z,29.92
2024-03-02T03:17:59.881Z,30.20
2024-03-02T03:20:27.771Z,29.77
2024-03-02T03:22:55.640Z,30.25
2024-03-02T03:25:23.555Z,31.48
2024-03-02T03:27:53.052Z,30.08
2024-03-02T03:30:21.143Z,29.92
2024-03-02T03:32:50.288Z,30.52
2024-03-02T03:35:19.662Z,31.30
2024-03-02T03:37:47.548Z,30.42
2024-03-02T03:40:15.608Z,31.35
2024-03-02T03:42:44.003Z,30.45
2024-03-02T03:45:12.111Z,31.00
2024-03-02T03:47:40.037Z,30.60
2024-03-02T03:50:10.237Z,31.20
2024-03-02T03:52:38.197Z,32.22
2024-03-02T03:55:07.544Z,32.38
2024-03-02T03:57:35.687Z,30.02
2024-03-02T04:00:03.703Z,31.67
2024-03-02T04:02:31.472Z,30.80
2024-03-02T04:04:59.398Z,31.80
2024-03-02T04:07:28.665Z,32.45
2024-03-02T04:09:56.635Z,30.58
2024-03-02T04:12:24.772Z,31.77
2024-03-02T04:14:52.808Z,30.65
2024-03-02T04:17:20.617Z,29.38
2024-03-02T04:19:48.411Z,31.52
2024-03-02T04:22:21.639Z,29.90
2024-03-02T04:24:54.814Z,29.05
2024-03-02T04:27:22.873Z,30.58
2024-03-02T04:29:50.884Z,29.67
2024-03-02T04:32:20.727Z,28.98
2024-03-02T04:34:48.574Z,30.45
2024-03-02T04:37:16.619Z,29.65
2024-03-02T04:39:44.663Z,29.10
2024-03-02T04:42:13.914Z,29.58
2024-03-02T04:44:41.776Z,29.60
2024-03-02T04:47:09.628Z,29.70
2024-03-02T04:49:37.565Z,28.98
2024-03-02T04:52:06.209Z,30.90
2024-03-02T04:54:36.095Z,30.15
2024-03-02T04:57:03.975Z,29.42
2024-03-02T04:59:33.161Z,29.42
2024-03-02T05:02:01.442Z,30.80
2024-03-02T05:04:29.230Z,31.23
2024-03-02T05:06:59.168Z,31.05
2024-03-02T05:09:27.042Z,32.33
2024-03-02T05:12:12.995Z,28.73
2024-03-02T05:14:42.189Z,29.52
2024-03-02T05:17:10.034Z,30.48
2024-03-02T05:19:37.864Z,30.98
2024-03-02T05:22:06.841Z,29.83
2024-03-02T05:24:35.235Z,31.70
2024-03-02T05:27:03.124Z,31.02
2024-03-02T05:29:30.990Z,30.23
2024-03-02T05:32:00.139Z,30.63
2024-03-02T05:34:28.031Z,30.58
2024-03-02T05:36:55.919Z,29.35
2024-03-02T05:39:23.831Z,30.73
2024-03-02T05:41:51.684Z,29.90
2024-03-02T05:44:20.545Z,30.15
2024-03-02T05:46:48.377Z,31.85
2024-03-02T05:49:17.601Z,30.75
2024-03-02T05:51:45.498Z,30.83
2024-03-02T05:54:13.642Z,31.02
2024-03-02T05:56:42.154Z,32.20
2024-03-02T05:59:13.912Z,31.58
2024-03-02T06:01:42.286Z,31.30
2024-03-02T06:04:12.115Z,32.15
2024-03-02T06:06:41.490Z,31.08
2024-03-02T06:09:09.914Z,31.13
2024-03-02T06:11:37.842Z,31.38
2024-03-02T06:14:07.100Z,33.80
2024-03-02T06:16:36.228Z,32.20
2024-03-02T06:19:04.627Z,30.98
2024-03-02T06:21:32.477Z,31.58
2024-03-02T06:24:02.309Z,30.88
2024-03-02T06:26:30.869Z,31.73
2024-03-02T06:28:58.746Z,32.53
2024-03-02T06:31:26.575Z,31.85
2024-03-02T06:33:54.419Z,32.55
2024-03-02T06:36:22.410Z,31.38
2024-03-02T06:38:50.218Z,31.42
2024-03-02T06:41:19.389Z,30.80
2024-03-02T06:43:48.196Z,30.67
2024-03-02T06:46:16.468Z,32.13
2024-03-02T06:48:44.643Z,31.20
2024-03-02T06:51:12.817Z,29.48
2024-03-02T06:53:40.604Z,30.05
2024-03-02T06:56:10.600Z,30.00
2024-03-02T06:58:39.880Z,28.75
2024-03-02T07:01:07.729Z,28.55
2024-03-02T07:03:35.717Z,28.83
2024-03-02T07:06:04.136Z,27.67
2024-03-02T07:08:31.956Z,28.63
2024-03-02T07:10:59.844Z,28.42
2024-03-02T07:13:27.973Z,27.58
2024-03-02T07:16:23.937Z,27.20
2024-03-02T07:18:53.542Z,27.00
2024-03-02T07:21:23.377Z,26.63
2024-03-02T07:23:51.699Z,27.50
2024-03-02T07:28:51.265Z,27.17
2024-03-02T07:31:20.443Z,27.17
2024-03-02T07:33:48.585Z,26.42
2024-03-02T07:36:16.844Z,24.40
2024-03-02T07:38:45.950Z,24.05
2024-03-02T07:41:14.447Z,23.13
2024-03-02T07:43:42.346Z,23.33
2024-03-02T07:46:10.273Z,23.50
2024-03-02T07:48:40.207Z,23.30
2024-03-02T07:51:08.077Z,22.63
2024-03-02T07:53:35.884Z,22.48
2024-03-02T07:56:04.210Z,22.25
2024-03-02T07:58:32.833Z,21.55
2024-03-02T08:01:02.639Z,20.73
2024-03-02T08:03:30.749Z,19.45
2024-03-02T08:06:00.083Z,19.83
2024-03-02T08:08:28.018Z,19.42
2024-03-02T08:13:23.630Z,18.65
2024-03-02T08:15:51.646Z,18.65
2024-03-02T08:18:20.428Z,17.85
2024-03-02T08:20:48.410Z,18.40
2024-03-02T08:23:17.647Z,18.50
2024-03-02T08:25:46.077Z,16.98
2024-03-02T08:28:14.045Z,17.30
2024-03-02T08:30:42.011Z,16.95
2024-03-02T08:33:09.929Z,17.65
2024-03-02T08:35:37.763Z,17.08
2024-03-02T08:38:06.615Z,16.60
2024-03-02T08:40:35.808Z,17.85
2024-03-02T08:43:03.832Z,16.20
2024-03-02T08:45:31.805Z,16.90
2024-03-02T08:47:59.762Z,16.60
2024-03-02T08:50:28.033Z,16.27
2024-03-02T08:52:55.862Z,16.90
2024-03-02T08:55:23.721Z,16.35
2024-03-02T08:57:53.101Z,17.02
2024-03-02T09:00:21.641Z,16.58
2024-03-02T09:02:49.657Z,18.23
2024-03-02T09:05:17.619Z,16.80
2024-03-02T09:07:45.477Z,17.00
2024-03-02T09:10:13.632Z,16.30
2024-03-02T09:12:42.204Z,18.02
2024-03-02T09:15:11.866Z,16.42
2024-03-02T09:17:39.782Z,17.25
2024-03-02T09:20:08.582Z,15.88
2024-03-02T09:22:36.420Z,16.17
2024-03-02T09:25:04.510Z,16.60
2024-03-02T09:27:32.439Z,16.45
2024-03-02T09:30:00.239Z,15.65
2024-03-02T09:32:30.088Z,17.40
2024-03-02T09:34:59.689Z,16.75
2024-03-02T09:37:27.923Z,16.75
2024-03-02T09:39:56.089Z,17.55
2024-03-02T09:42:24.967Z,16.40
2024-03-02T09:44:53.149Z,15.77
2024-03-02T09:47:21.103Z,17.00
2024-03-02T09:49:50.910Z,16.85
2024-03-02T09:52:18.707Z,16.25
2024-03-02T09:54:46.589Z,16.00
2024-03-02T09:57:14.479Z,14.95
2024-03-02T09:59:42.300Z,16.20
2024-03-02T10:02:10.165Z,14.95
2024-03-02T10:04:37.979Z,15.82
2024-03-02T10:07:15.226Z,15.10
2024-03-02T10:09:43.990Z,15.65
2024-03-02T10:12:13.413Z,14.65
2024-03-02T10:14:41.849Z,15.52
2024-03-02T10:17:11.055Z,15.18
2024-03-02T10:19:40.087Z,14.77
2024-03-02T10:22:09.601Z,14.75
2024-03-02T10:24:40.360Z,17.15
2024-03-02T10:27:12.243Z,15.30
2024-03-02T10:29:42.878Z,15.32
2024-03-02T10:32:12.254Z,15.05
2024-03-02T10:34:42.229Z,15.73
2024-03-02T10:37:10.684Z,16.15
2024-03-02T10:39:41.171Z,15.38
2024-03-02T10:42:10.154Z,15.52
2024-03-02T10:44:38.080Z,15.98
2024-03-02T10:47:07.205Z,13.98
2024-03-02T10:49:36.087Z,15.85
2024-03-02T10:52:05.101Z,14.75
2024-03-02T10:54:38.118Z,15.32
2024-03-02T10:57:10.776Z,14.77
2024-03-02T10:59:41.132Z,15.60
2024-03-02T11:02:13.207Z,15.95
2024-03-02T11:04:42.938Z,15.65
2024-03-02T11:07:13.116Z,14.52
2024-03-02T11:09:43.963Z,15.75
2024-03-02T11:12:19.506Z,14.80
2024-03-02T11:14:47.423Z,15.15
2024-03-02T11:17:17.834Z,15.85
2024-03-02T11:19:47.389Z,15.05
2024-03-02T11:22:16.955Z,15.63
2024-03-02T11:24:50.820Z,15.68
2024-03-02T11:28:01.525Z,16.10
2024-03-02T11:30:52.238Z,15.02
2024-03-02T11:33:32.568Z,15.07
2024-03-02T11:36:01.034Z,14.98
2024-03-02T11:38:35.909Z,14.90
2024-03-02T11:41:05.406Z,14.27
2024-03-02T11:43:34.872Z,14.98
2024-03-02T11:46:05.703Z,14.85
2024-03-02T11:48:34.184Z,14.55
2024-03-02T11:51:02.833Z,14.20
2024-03-02T11:53:33.166Z,15.00
2024-03-02T11:56:04.086Z,14.73
2024-03-02T11:58:32.478Z,13.70
2024-03-02T12:01:01.824Z,14.75
2024-03-02T12:03:30.363Z,14.77
2024-03-02T12:05:58.448Z,14.80
2024-03-02T12:08:26.991Z,14.07
2024-03-02T12:11:01.934Z,14.23
2024-03-02T12:13:30.195Z,14.70
2024-03-02T12:15:58.618Z,14.82
2024-03-02T12:18:28.248Z,14.27
2024-03-02T12:20:58.843Z,14.40
2024-03-02T12:23:28.077Z,14.55
2024-03-02T12:25:56.490Z,14.23
2024-03-02T12:28:24.364Z,14.90
2024-03-02T12:30:53.033Z,14.32
2024-03-02T12:33:22.315Z,14.05
2024-03-02T12:35:52.640Z,14.35
2024-03-02T12:38:20.870Z,13.77
2024-03-02T12:40:51.001Z,14.07
2024-03-02T12:43:18.985Z,13.88
2024-03-02T12:45:47.304Z,14.40
2024-03-02T12:48:16.007Z,13.80
2024-03-02T12:50:45.345Z,13.02
2024-03-02T12:53:18.496Z,13.70
2024-03-02T12:55:46.751Z,13.35
2024-03-02T12:58:19.538Z,14.32
2024-03-02T13:00:47.637Z,13.48
2024-03-02T13:03:16.683Z,13.95
2024-03-02T13:05:45.322Z,12.68
2024-03-02T13:08:13.992Z,13.88
2024-03-02T13:10:43.469Z,13.13
2024-03-02T13:13:11.462Z,14.25
2024-03-02T13:15:40.354Z,13.77
2024-03-02T13:18:10.507Z,13.82
2024-03-02T13:20:38.399Z,13.38
2024-03-02T13:23:06.328Z,13.63
2024-03-02T13:25:34.435Z,12.68
2024-03-02T13:28:04.344Z,13.55
2024-03-02T13:30:32.321Z,12.65
2024-03-02T13:33:00.172Z,13.02
2024-03-02T13:35:28.061Z,14.65
2024-03-02T13:37:55.872Z,13.20
2024-03-02T13:40:24.732Z,12.75
2024-03-02T13:42:54.915Z,13.50
2024-03-02T13:45:24.273Z,13.88
2024-03-02T13:47:53.289Z,12.82
2024-03-02T13:50:21.607Z,13.02
2024-03-02T13:52:49.436Z,13.73
2024-03-02T13:55:17.301Z,14.13
2024-03-02T13:57:45.204Z,14.05
2024-03-02T14:00:14.374Z,12.60
2024-03-02T14:02:43.762Z,13.82
2024-03-02T14:05:12.921Z,13.60
2024-03-02T14:07:41.011Z,13.85
2024-03-02T14:10:09.522Z,13.38
2024-03-02T14:12:38.681Z,13.55
2024-03-02T14:15:07.761Z,14.15
2024-03-02T14:17:36.277Z,13.32
2024-03-02T14:20:11.440Z,13.63
2024-03-02T14:22:39.410Z,13.13
2024-03-02T14:25:07.881Z,13.27
2024-03-02T14:27:50.871Z,13.18
2024-03-02T14:30:24.489Z,13.07
2024-03-02T14:32:52.501Z,14.10
2024-03-02T14:35:23.906Z,13.10
2024-03-02T14:37:51.960Z,14.00
2024-03-02T14:40:19.850Z,13.23
2024-03-02T14:42:49.422Z,14.07
2024-03-02T14:45:17.642Z,14.35
2024-03-02T14:47:45.828Z,13.25
2024-03-02T14:50:13.985Z,14.50
2024-03-02T14:52:46.004Z,13.82
2024-03-02T14:55:14.267Z,14.70
2024-03-02T14:57:42.214Z,14.35
2024-03-02T15:00:12.867Z,14.25
2024-03-02T15:02:40.765Z,15.82
2024-03-02T15:05:09.571Z,14.38
2024-03-02T15:07:37.494Z,14.48
2024-03-02T15:10:08.217Z,14.98
2024-03-02T15:12:36.277Z,14.52
2024-03-02T15:15:04.772Z,14.63
2024-03-02T15:17:32.799Z,16.85
2024-03-02T15:20:00.621Z,15.18
2024-03-02T15:22:30.493Z,14.98
2024-03-02T15:24:58.360Z,15.18
2024-03-02T15:27:28.536Z,15.35
2024-03-02T15:29:58.463Z,15.25
2024-03-02T15:32:27.817Z,15.05
2024-03-02T15:34:55.806Z,14.52
2024-03-02T15:37:24.003Z,15.52
2024-03-02T15:39:51.891Z,15.35
2024-03-02T15:42:20.221Z,15.55
2024-03-02T15:44:49.426Z,17.02
2024-03-02T15:47:17.493Z,16.00
2024-03-02T15:49:45.707Z,16.52
2024-03-02T15:52:17.046Z,15.93
2024-03-02T15:54:44.865Z,15.88
2024-03-02T15:57:12.865Z,15.80
2024-03-02T15:59:40.741Z,16.23
2024-03-02T16:02:10.019Z,16.58
2024-03-02T16:04:37.913Z,16.92
2024-03-02T16:07:06.133Z,16.40
2024-03-02T16:09:34.053Z,15.63
2024-03-02T16:12:01.990Z,17.20
2024-03-02T16:14:29.868Z,16.98
2024-03-02T16:16:58.477Z,16.67
2024-03-02T16:19:32.941Z,16.20
2024-03-02T16:22:01.662Z,17.02
2024-03-02T16:24:29.609Z,16.23
2024-03-02T16:26:57.505Z,17.63
2024-03-02T16:29:25.327Z,17.35
2024-03-02T16:31:53.202Z,16.40
2024-03-02T16:34:21.062Z,17.58
2024-03-02T16:36:50.802Z,17.48
2024-03-02T16:39:20.444Z,16.42
2024-03-02T16:41:48.689Z,17.83
2024-03-02T16:44:17.576Z,16.17
2024-03-02T16:46:46.436Z,17.40
2024-03-02T16:49:14.536Z,16.38
2024-03-02T16:51:42.757Z,17.50
2024-03-02T16:54:12.300Z,16.75
2024-03-02T16:56:40.657Z,17.05
2024-03-02T16:59:08.919Z,17.27
2024-03-02T17:01:38.071Z,16.83
2024-03-02T17:04:07.562Z,17.50
2024-03-02T17:06:35.737Z,17.15
2024-03-02T17:09:03.664Z,17.15
2024-03-02T17:11:32.994Z,16.83
2024-03-02T17:14:01.011Z,17.45
2024-03-02T17:16:28.905Z,18.40
2024-03-02T17:18:56.914Z,17.83
2024-03-02T17:21:26.288Z,17.80
2024-03-02T17:23:54.192Z,18.67
2024-03-02T17:26:22.226Z,17.80
2024-03-02T17:28:51.584Z,20.33
2024-03-02T17:31:19.413Z,17.85
2024-03-02T17:33:47.772Z,18.05
2024-03-02T17:36:15.912Z,16.35
2024-03-02T17:38:44.014Z,17.55
2024-03-02T17:41:12.365Z,16.38
2024-03-02T17:43:40.584Z,17.73
2024-03-02T17:46:09.895Z,18.50
2024-03-02T17:48:37.872Z,17.48
2024-03-02T17:51:09.081Z,17.55
2024-03-02T17:53:37.243Z,17.60
2024-03-02T17:56:05.803Z,18.27
2024-03-02T17:58:34.677Z,17.65
2024-03-02T18:01:02.764Z,16.60
2024-03-02T18:03:32.198Z,17.17
2024-03-02T18:06:00.125Z,17.75
2024-03-02T18:08:28.088Z,18.75
2024-03-02T18:10:56.412Z,18.92
2024-03-02T18:13:24.543Z,17.88
2024-03-02T18:15:52.819Z,18.05
2024-03-02T18:18:21.030Z,17.85
2024-03-02T18:20:50.887Z,18.60
2024-03-02T18:23:18.737Z,18.05
2024-03-02T18:25:48.506Z,18.98
2024-03-02T18:28:16.610Z,18.60
2024-03-02T18:30:44.572Z,19.52
2024-03-02T18:33:12.516Z,19.23
2024-03-02T18:35:40.369Z,19.25
2024-03-02T18:38:09.509Z,19.02
2024-03-02T18:40:37.383Z,19.70
2024-03-02T18:43:05.927Z,19.70
2024-03-02T18:45:33.946Z,21.08
2024-03-02T18:48:04.051Z,19.25
2024-03-02T18:50:34.194Z,19.92
2024-03-02T18:53:02.127Z,19.63
2024-03-02T18:55:31.312Z,19.90
2024-03-02T18:57:59.274Z,20.35
2024-03-02T19:00:27.262Z,19.85
2024-03-02T19:02:55.125Z,19.25
2024-03-02T19:05:22.997Z,20.05
2024-03-02T19:07:50.841Z,20.10
2024-03-02T19:10:19.111Z,19.38
2024-03-02T19:12:50.385Z,19.48
2024-03-02T19:15:23.115Z,19.73
2024-03-02T19:17:50.981Z,19.55
2024-03-02T19:20:18.803Z,20.08
2024-03-02T19:22:47.396Z,19.75
2024-03-02T19:25:15.941Z,19.52
2024-03-02T19:27:43.841Z,20.20
2024-03-02T19:30:14.433Z,21.08
2024-03-02T19:32:42.471Z,19.75
2024-03-02T19:35:13.039Z,20.13
2024-03-02T19:37:42.278Z,20.08
2024-03-02T19:40:11.145Z,20.20
2024-03-02T19:42:39.305Z,20.65
2024-03-02T19:45:08.200Z,20.50
2024-03-02T19:47:37.500Z,20.20
2024-03-02T19:50:06.470Z,19.63
2024-03-02T19:52:34.469Z,19.73
2024-03-02T19:55:03.004Z,19.25
2024-03-02T19:57:31.837Z,20.35
2024-03-02T19:59:59.766Z,19.30
2024-03-02T20:02:28.159Z,19.17
2024-03-02T20:04:58.535Z,19.50
2024-03-02T20:07:26.389Z,19.52
2024-03-02T20:09:54.414Z,20.17
2024-03-02T20:12:22.392Z,20.50
2024-03-02T20:14:50.264Z,19.08
2024-03-02T20:17:18.133Z,18.67
2024-03-02T20:19:46.277Z,20.17
2024-03-02T20:22:16.319Z,19.65
2024-03-02T20:24:44.294Z,19.05
2024-03-02T20:27:12.374Z,19.52
2024-03-02T20:29:40.242Z,19.10
2024-03-02T20:32:08.879Z,18.33
2024-03-02T20:34:36.880Z,18.25
2024-03-02T20:37:05.480Z,18.50
2024-03-02T20:39:34.858Z,18.23
2024-03-02T20:42:02.737Z,18.13
2024-03-02T20:44:30.594Z,18.45
2024-03-02T20:46:58.464Z,17.50
2024-03-02T20:49:26.900Z,18.15
2024-03-02T20:51:54.843Z,18.35
2024-03-02T20:54:22.713Z,17.38
2024-03-02T20:56:52.989Z,18.27
2024-03-02T20:59:20.856Z,17.27
2024-03-02T21:01:49.388Z,19.00
2024-03-02T21:04:17.394Z,19.08
2024-03-02T21:06:45.600Z,17.55
2024-03-02T21:09:13.512Z,17.80
2024-03-02T21:11:41.887Z,18.70
2024-03-02T21:14:11.145Z,17.40
2024-03-02T21:16:41.251Z,17.60
2024-03-02T21:19:09.593Z,17.17
2024-03-02T21:21:39.798Z,18.17
2024-03-02T21:24:08.092Z,17.30
2024-03-02T21:26:39.826Z,17.65
2024-03-02T21:29:07.751Z,17.55
2024-03-02T21:31:36.973Z,17.35
2024-03-02T21:34:05.359Z,16.92
2024-03-02T21:36:33.881Z,16.88
2024-03-02T21:39:05.318Z,17.20
2024-03-02T21:41:33.747Z,16.05
2024-03-02T21:44:01.673Z,16.73
2024-03-02T21:46:29.599Z,16.27
2024-03-02T21:48:58.886Z,16.17
2024-03-02T21:51:29.560Z,15.63
2024-03-02T21:53:59.329Z,16.30
2024-03-02T21:56:27.282Z,16.75
2024-03-02T21:58:55.324Z,14.68
2024-03-02T22:01:23.366Z,16.52
2024-03-02T22:03:51.292Z,16.08
2024-03-02T22:06:20.452Z,15.38
2024-03-02T22:08:48.276Z,15.77
2024-03-02T22:11:16.168Z,15.85
2024-03-02T22:13:46.010Z,14.82
2024-03-02T22:16:13.962Z,14.73
2024-03-02T22:18:41.930Z,15.68
2024-03-02T22:21:09.977Z,16.20
2024-03-02T22:23:40.371Z,15.77
2024-03-02T22:26:08.159Z,15.05
2024-03-02T22:28:35.945Z,15.00
2024-03-02T22:31:03.813Z,14.93
2024-03-02T22:33:31.649Z,14.82
2024-03-02T22:35:59.462Z,15.10
2024-03-02T22:38:27.284Z,14.35
2024-03-02T22:40:56.448Z,14.57
2024-03-02T22:43:24.367Z,14.65
2024-03-02T22:45:52.611Z,14.02
2024-03-02T22:48:20.470Z,14.40
2024-03-02T22:50:48.317Z,15.00
2024-03-02T22:53:16.423Z,14.27
2024-03-02T22:55:44.308Z,13.77
2024-03-02T22:58:13.576Z,13.57
2024-03-02T23:00:49.315Z,13.63
2024-03-02T23:03:19.254Z,13.82
2024-03-02T23:05:47.275Z,13.90
2024-03-02T23:08:15.203Z,13.77
2024-03-02T23:10:43.260Z,13.75
2024-03-02T23:13:11.237Z,13.10
2024-03-02T23:15:40.807Z,13.50
2024-03-02T23:18:08.705Z,13.70
2024-03-02T23:20:36.762Z,13.43
2024-03-02T23:23:05.946Z,12.68
2024-03-02T23:25:33.996Z,14.40
2024-03-02T23:28:02.215Z,13.38
2024-03-02T23:30:30.792Z,13.80
2024-03-02T23:33:00.189Z,13.30
2024-03-02T23:35:28.074Z,13.77
2024-03-02T23:37:55.960Z,13.32
2024-03-02T23:40:45.926Z,13.77
2024-03-02T23:43:14.480Z,12.85
2024-03-02T23:45:42.372Z,13.38
2024-03-02T23:48:12.136Z,14.07
2024-03-02T23:50:40.097Z,14.35
2024-03-02T23:53:07.929Z,13.82
2024-03-02T23:55:46.545Z,13.63
2024-03-02T23:58:19.695Z,13.30
